Terminal Aerodrome Forecast
Issued by NWS Houston/Galveston, TX

Home | Current Version | Previous Version | Text Only | Print | Product List | Glossary On
Versions: 1 2 3 4 5 6 7 8 9 10 11 12 13 14 15 16 17 18 19 20 21 22 23 24
000
FTUS44 KHGX 200907 AAC
TAFGLS
TAF AMD
KGLS 200907Z 2009/2106 09014G21KT 6SM -RA BR VCTS SCT020 BKN040CB
      TEMPO 2009/2011 VRB20KT 5SM -TSRA BR SCT015 BKN025CB
     FM201200 12015KT P6SM VCSH BKN015 OVC050
     FM201800 13016KT P6SM VCSH BKN025
      TEMPO 2019/2021 P6SM -TSRA BKN030CB
     FM210400 13010KT P6SM -RA VCSH BKN015 OVC030=

USA.gov is the U.S. government's official web portal to all federal, state and local government web resources and services.